CheckWX is a tool to help pilots better visualize weather data.  It is not intended as a substitute for an official pre-flight weather briefing.

13:41:12 UTC

EPGD METAR
Gdańsk Lech Wałęsa Airport
Gdańsk, Poland
Current

11 mins ago

EPGD 131330Z 12012KT 3000 -RASN BR OVC002 01/01 Q0989 R11/290195
Observed
Dec-13 @ 13:30 UTC
Wind
  • 120° at 12 KTS
Visibility
3,000 meters
Flight Rules
LIFR
Conditions
Light Rain, Light Snow, Mist
Cloud Levels
  • Overcast at 200' AGL
Temperature
C / 34°F
Dewpoint
C / 34°F
Humidity
100%
Altimeter
29.2" Hg
Pressure
988.92 hPa
Previous

41 mins ago

EPGD 131300Z 12012KT 2800 -RA BR OVC002 01/01 Q0989 R11/290195
Observed
Dec-13 @ 13:00 UTC
Wind
  • 120° at 12 KTS
Visibility
2,800 meters
Flight Rules
LIFR
Conditions
Light Rain, Mist
Cloud Levels
  • Overcast at 200' AGL
Temperature
C / 34°F
Dewpoint
C / 34°F
Humidity
100%
Altimeter
29.2" Hg
Pressure
988.92 hPa
Previous

1 hour ago

EPGD 131230Z 13010KT 2200 BR OVC002 01/01 Q0989 R11/290195
Observed
Dec-13 @ 12:30 UTC
Wind
  • 130° at 10 KTS
Visibility
2,200 meters
Flight Rules
LIFR
Conditions
Mist
Cloud Levels
  • Overcast at 200' AGL
Temperature
C / 34°F
Dewpoint
C / 34°F
Humidity
100%
Altimeter
29.2" Hg
Pressure
988.92 hPa